Time;durP1;ratioP1;P1;durP2;ratioP2;P2;SDS_P1;SDS_P2;PMS_P1;PMS_P2;Temp;Humidity;BMP_temperature;BMP_pressure;BME280_temperature;BME280_humidity;BME280_pressure;Samples;Min_cycle;Max_cycle;Signal;HPM_P1;HPM_P2
2023/08/08 00:01:42;;;;;;;5.13;4.70;;;;;;;;;;6242565;23;20442;-79
2023/08/08 00:04:09;;;;;;;7.50;4.75;;;;;;;;;;6243899;22;20000;-79
2023/08/08 00:06:35;;;;;;;5.75;5.10;;;;;;;;;;6217490;23;20003;-79
2023/08/08 00:09:01;;;;;;;10.90;5.30;;;;;;;;;;6217795;23;20020;-80
2023/08/08 00:11:26;;;;;;;7.07;5.18;;;;;;;;;;6242403;23;20004;-79
2023/08/08 00:13:52;;;;;;;6.35;5.10;;;;;;;;;;6244011;22;20082;-80
2023/08/08 00:16:17;;;;;;;5.18;4.68;;;;;;;;;;6243133;23;20011;-81
2023/08/08 00:18:42;;;;;;;9.68;4.88;;;;;;;;;;6243915;23;20414;-80
2023/08/08 00:21:08;;;;;;;10.02;5.28;;;;;;;;;;6242688;23;20007;-80
2023/08/08 00:23:33;;;;;;;7.55;4.82;;;;;;;;;;6244343;23;20063;-80
2023/08/08 00:25:59;;;;;;;9.32;5.13;;;;;;;;;;6243910;22;20031;-79
2023/08/08 00:28:24;;;;;;;5.35;4.80;;;;;;;;;;6244007;23;20000;-80
2023/08/08 00:30:50;;;;;;;7.47;4.72;;;;;;;;;;6244293;23;20000;-80
2023/08/08 00:33:16;;;;;;;5.38;4.88;;;;;;;;;;6243797;23;20187;-80
2023/08/08 00:35:41;;;;;;;11.27;5.45;;;;;;;;;;6218962;23;20000;-80
2023/08/08 00:38:07;;;;;;;8.38;5.25;;;;;;;;;;6245888;23;20405;-80
2023/08/08 00:40:32;;;;;;;6.90;5.35;;;;;;;;;;6219160;23;20401;-80
2023/08/08 00:42:57;;;;;;;11.20;5.10;;;;;;;;;;6194591;23;20486;-79
2023/08/08 00:45:23;;;;;;;9.60;6.07;;;;;;;;;;6246327;23;20000;-79
2023/08/08 00:47:49;;;;;;;8.88;4.78;;;;;;;;;;6219057;23;20359;-80
2023/08/08 00:50:15;;;;;;;6.72;5.15;;;;;;;;;;6194148;23;20007;-80
2023/08/08 00:52:40;;;;;;;6.32;5.15;;;;;;;;;;6219085;23;20058;-81
2023/08/08 00:55:06;;;;;;;7.63;5.07;;;;;;;;;;6218980;23;20005;-80
2023/08/08 00:57:31;;;;;;;5.43;4.93;;;;;;;;;;6218926;23;20007;-79
2023/08/08 00:59:57;;;;;;;5.22;4.40;;;;;;;;;;6219022;23;20008;-80
2023/08/08 01:02:22;;;;;;;7.97;5.38;;;;;;;;;;6218651;23;20000;-79
2023/08/08 01:04:48;;;;;;;7.75;4.75;;;;;;;;;;6219017;23;20346;-80
2023/08/08 01:07:22;;;;;;;8.52;4.30;;;;;;;;;;6194445;23;20000;-80
2023/08/08 01:09:55;;;;;;;6.38;5.03;;;;;;;;;;6245365;23;21295;-80
2023/08/08 01:12:20;;;;;;;7.35;4.60;;;;;;;;;;6194673;23;20049;-80
2023/08/08 01:14:46;;;;;;;5.13;4.63;;;;;;;;;;6193955;23;20035;-80
2023/08/08 01:17:11;;;;;;;5.93;4.72;;;;;;;;;;6218308;23;20038;-80
2023/08/08 01:19:37;;;;;;;5.53;4.70;;;;;;;;;;6219213;23;20027;-80
2023/08/08 01:22:04;;;;;;;5.68;4.55;;;;;;;;;;6194092;23;19996;-80
2023/08/08 01:24:32;;;;;;;5.05;4.55;;;;;;;;;;6193680;23;20057;-80
2023/08/08 01:26:57;;;;;;;4.72;4.32;;;;;;;;;;6191086;23;20012;-78
2023/08/08 01:29:23;;;;;;;9.93;5.05;;;;;;;;;;6219019;23;20035;-78
2023/08/08 01:31:48;;;;;;;8.80;4.82;;;;;;;;;;6245016;22;20000;-81
2023/08/08 01:34:14;;;;;;;6.00;4.65;;;;;;;;;;6243832;23;20053;-79
2023/08/08 01:36:50;;;;;;;6.35;4.80;;;;;;;;;;6218625;23;20000;-80
2023/08/08 01:39:17;;;;;;;5.78;4.65;;;;;;;;;;6244007;23;20015;-80
2023/08/08 01:41:44;;;;;;;6.88;4.90;;;;;;;;;;6219036;23;20005;-80
2023/08/08 01:44:10;;;;;;;5.97;4.75;;;;;;;;;;6244067;23;20008;-80
2023/08/08 01:46:36;;;;;;;4.88;4.25;;;;;;;;;;6218307;23;20066;-78
2023/08/08 01:49:01;;;;;;;6.95;4.30;;;;;;;;;;6218768;23;20134;-80
2023/08/08 01:51:27;;;;;;;7.30;4.30;;;;;;;;;;6245175;22;20004;-80
2023/08/08 01:53:53;;;;;;;4.60;4.20;;;;;;;;;;6218305;23;20007;-80
2023/08/08 01:56:18;;;;;;;4.90;4.40;;;;;;;;;;6218803;23;20060;-80
2023/08/08 01:58:43;;;;;;;4.82;4.30;;;;;;;;;;6244177;23;20389;-80
2023/08/08 02:01:09;;;;;;;5.25;4.07;;;;;;;;;;6243405;23;20004;-80
2023/08/08 02:03:34;;;;;;;8.40;4.35;;;;;;;;;;6193432;23;20351;-80
2023/08/08 02:06:00;;;;;;;5.90;4.32;;;;;;;;;;6243702;23;20046;-79
2023/08/08 02:08:25;;;;;;;6.80;4.25;;;;;;;;;;6193188;23;20004;-80
2023/08/08 02:10:50;;;;;;;4.43;3.83;;;;;;;;;;6244205;23;20062;-80
2023/08/08 02:13:16;;;;;;;7.35;3.83;;;;;;;;;;6243436;23;20004;-80
2023/08/08 02:15:41;;;;;;;4.50;4.10;;;;;;;;;;6243635;23;20355;-80
2023/08/08 02:18:08;;;;;;;5.75;3.92;;;;;;;;;;6243403;23;20443;-80
2023/08/08 02:20:34;;;;;;;5.13;4.53;;;;;;;;;;6218671;23;20008;-80
2023/08/08 02:22:59;;;;;;;4.78;4.38;;;;;;;;;;6193322;23;20008;-80
2023/08/08 02:25:25;;;;;;;5.82;4.53;;;;;;;;;;6243322;23;20415;-80
2023/08/08 02:27:50;;;;;;;4.88;4.38;;;;;;;;;;6193340;23;20008;-79
2023/08/08 02:30:16;;;;;;;5.60;4.13;;;;;;;;;;6243226;23;20079;-80
2023/08/08 02:32:42;;;;;;;4.85;4.40;;;;;;;;;;6243595;23;20075;-79
2023/08/08 02:35:08;;;;;;;5.30;4.80;;;;;;;;;;6245202;22;20000;-80
2023/08/08 02:37:33;;;;;;;5.50;4.90;;;;;;;;;;6243612;23;20030;-80
2023/08/08 02:39:59;;;;;;;6.32;5.20;;;;;;;;;;6245176;22;20091;-80
2023/08/08 02:42:24;;;;;;;7.35;5.30;;;;;;;;;;6244828;22;20078;-80
2023/08/08 02:44:49;;;;;;;6.53;5.32;;;;;;;;;;6217946;23;20008;-79
2023/08/08 02:47:15;;;;;;;7.20;5.18;;;;;;;;;;6218295;23;20004;-79
2023/08/08 02:49:40;;;;;;;5.72;4.93;;;;;;;;;;6245101;22;20296;-79
2023/08/08 02:52:06;;;;;;;6.05;5.40;;;;;;;;;;6243662;23;20071;-80
2023/08/08 02:54:32;;;;;;;6.28;5.68;;;;;;;;;;6244783;22;20010;-80
2023/08/08 02:56:57;;;;;;;6.03;5.20;;;;;;;;;;6217948;23;20000;-80
2023/08/08 02:59:22;;;;;;;9.43;5.15;;;;;;;;;;6192479;23;20046;-80
2023/08/08 03:01:49;;;;;;;8.25;5.03;;;;;;;;;;6242997;23;20004;-80
2023/08/08 03:04:14;;;;;;;5.45;4.95;;;;;;;;;;6218556;23;20095;-80
2023/08/08 03:06:40;;;;;;;6.07;5.55;;;;;;;;;;6243291;23;20058;-80
2023/08/08 03:09:05;;;;;;;8.48;5.93;;;;;;;;;;6217715;23;20062;-79
2023/08/08 03:11:31;;;;;;;6.55;5.90;;;;;;;;;;6243077;23;20075;-80
2023/08/08 03:13:56;;;;;;;5.97;5.38;;;;;;;;;;6217819;23;20007;-80
2023/08/08 03:16:22;;;;;;;6.75;6.10;;;;;;;;;;6243216;23;20007;-80
2023/08/08 03:18:47;;;;;;;6.72;6.03;;;;;;;;;;6242977;23;20008;-80
2023/08/08 03:21:13;;;;;;;9.95;6.13;;;;;;;;;;6243331;23;20008;-80
2023/08/08 03:23:38;;;;;;;8.70;6.55;;;;;;;;;;6217541;23;20000;-80
2023/08/08 03:26:04;;;;;;;11.70;6.47;;;;;;;;;;6242780;23;20008;-80
2023/08/08 03:28:29;;;;;;;9.18;6.35;;;;;;;;;;6242539;23;20007;-79
2023/08/08 03:30:55;;;;;;;7.70;6.47;;;;;;;;;;6217655;23;20010;-80
2023/08/08 03:33:20;;;;;;;9.60;7.07;;;;;;;;;;6243047;23;20000;-81
2023/08/08 03:35:45;;;;;;;8.15;5.95;;;;;;;;;;6243039;23;20440;-80
2023/08/08 03:38:11;;;;;;;7.43;6.60;;;;;;;;;;6243003;23;20004;-80
2023/08/08 03:40:36;;;;;;;10.90;6.68;;;;;;;;;;6243075;23;20000;-80
2023/08/08 03:43:02;;;;;;;14.25;6.70;;;;;;;;;;6216874;23;20083;-80
2023/08/08 03:45:28;;;;;;;12.27;7.00;;;;;;;;;;6192728;23;20004;-80
2023/08/08 03:47:53;;;;;;;8.75;6.53;;;;;;;;;;6243356;23;19993;-80
2023/08/08 03:50:19;;;;;;;8.57;6.10;;;;;;;;;;6244143;23;20138;-80
2023/08/08 03:52:44;;;;;;;8.55;5.95;;;;;;;;;;6218027;23;20000;-80
2023/08/08 03:55:09;;;;;;;8.65;5.82;;;;;;;;;;6192843;23;20078;-81
2023/08/08 03:57:35;;;;;;;6.25;5.63;;;;;;;;;;6242121;23;20026;-80
2023/08/08 04:00:00;;;;;;;6.15;5.07;;;;;;;;;;6244419;22;20388;-80
2023/08/08 04:02:28;;;;;;;5.75;5.15;;;;;;;;;;6217521;23;20000;-79
2023/08/08 04:04:53;;;;;;;9.07;5.78;;;;;;;;;;6242646;23;20004;-80
2023/08/08 04:07:18;;;;;;;8.80;5.35;;;;;;;;;;6217257;23;20095;-80
2023/08/08 04:09:44;;;;;;;5.80;5.10;;;;;;;;;;6216961;23;20007;-79
2023/08/08 04:12:09;;;;;;;7.70;5.10;;;;;;;;;;6217074;23;20004;-79
2023/08/08 04:14:35;;;;;;;7.20;5.35;;;;;;;;;;6243084;23;19999;-80
2023/08/08 04:17:00;;;;;;;5.40;4.90;;;;;;;;;;6242549;23;20010;-80
2023/08/08 04:19:25;;;;;;;5.43;4.93;;;;;;;;;;6217265;23;20000;-80
2023/08/08 04:21:51;;;;;;;5.40;4.60;;;;;;;;;;6217520;23;20058;-79
2023/08/08 04:24:16;;;;;;;6.43;4.40;;;;;;;;;;6242432;23;20003;-80
2023/08/08 04:26:42;;;;;;;4.78;4.30;;;;;;;;;;6241965;23;20012;-80
2023/08/08 04:29:07;;;;;;;7.93;4.47;;;;;;;;;;6217836;23;20014;-80
2023/08/08 04:31:32;;;;;;;4.90;3.63;;;;;;;;;;6217189;23;20334;-79
2023/08/08 04:33:59;;;;;;;5.85;4.10;;;;;;;;;;6242326;23;20004;-80
2023/08/08 04:36:26;;;;;;;4.07;3.78;;;;;;;;;;6217935;23;20004;-79
2023/08/08 04:38:51;;;;;;;4.97;3.90;;;;;;;;;;6217263;23;20046;-80
2023/08/08 04:41:16;;;;;;;4.22;3.88;;;;;;;;;;6242156;23;20035;-80
2023/08/08 04:43:42;;;;;;;3.90;3.60;;;;;;;;;;6243840;22;20004;-80
2023/08/08 04:46:07;;;;;;;5.85;3.92;;;;;;;;;;6242324;23;20011;-80
2023/08/08 04:48:33;;;;;;;5.97;3.72;;;;;;;;;;6217095;23;20001;-80
2023/08/08 04:50:58;;;;;;;3.70;3.40;;;;;;;;;;6242376;23;20032;-79
2023/08/08 04:53:24;;;;;;;3.70;3.40;;;;;;;;;;6217127;23;20008;-79
2023/08/08 04:55:49;;;;;;;5.43;3.40;;;;;;;;;;6216948;23;20011;-79
2023/08/08 04:58:14;;;;;;;4.85;3.13;;;;;;;;;;6242251;23;20004;-80
2023/08/08 05:00:40;;;;;;;4.03;3.30;;;;;;;;;;6216816;23;20004;-80
2023/08/08 05:03:05;;;;;;;4.40;2.90;;;;;;;;;;6217285;23;20415;-80
2023/08/08 05:05:31;;;;;;;3.58;3.00;;;;;;;;;;6192409;23;20405;-80
2023/08/08 05:07:56;;;;;;;2.80;2.60;;;;;;;;;;6243687;23;20439;-80
2023/08/08 05:10:22;;;;;;;6.70;3.00;;;;;;;;;;6242047;23;20004;-79
2023/08/08 05:12:48;;;;;;;2.83;2.63;;;;;;;;;;6217532;23;20000;-79
2023/08/08 05:15:13;;;;;;;3.88;2.47;;;;;;;;;;6242920;23;20000;-80
2023/08/08 05:17:39;;;;;;;3.38;2.72;;;;;;;;;;6243822;22;20008;-80
2023/08/08 05:20:05;;;;;;;5.88;3.70;;;;;;;;;;6242093;23;20396;-79
2023/08/08 05:22:30;;;;;;;7.03;2.40;;;;;;;;;;6218725;23;20008;-79
2023/08/08 05:24:56;;;;;;;2.70;2.50;;;;;;;;;;6243589;23;20385;-81
2023/08/08 05:27:21;;;;;;;3.83;2.20;;;;;;;;;;6245514;23;20463;-80
2023/08/08 05:29:47;;;;;;;4.28;2.45;;;;;;;;;;6219178;23;20028;-80
2023/08/08 05:32:12;;;;;;;2.60;2.10;;;;;;;;;;6218788;23;20026;-80
2023/08/08 05:34:37;;;;;;;3.05;1.90;;;;;;;;;;6195061;23;20392;-79
2023/08/08 05:37:03;;;;;;;5.10;1.80;;;;;;;;;;6194105;23;20337;-80
2023/08/08 05:39:30;;;;;;;3.63;1.38;;;;;;;;;;6193979;23;20004;-80
2023/08/08 05:41:56;;;;;;;1.95;1.60;;;;;;;;;;6219637;23;20070;-79
2023/08/08 05:44:21;;;;;;;3.42;1.70;;;;;;;;;;6219183;23;20423;-80
2023/08/08 05:46:46;;;;;;;2.60;1.33;;;;;;;;;;6218746;23;20004;-81
2023/08/08 05:49:12;;;;;;;1.73;1.23;;;;;;;;;;6218772;23;20004;-80
2023/08/08 05:51:37;;;;;;;5.18;1.55;;;;;;;;;;6194027;23;20058;-78
2023/08/08 05:54:03;;;;;;;2.65;1.30;;;;;;;;;;6219763;23;20008;-79
2023/08/08 05:56:35;;;;;;;5.03;1.85;;;;;;;;;;6171579;23;20405;-79
2023/08/08 05:59:01;;;;;;;3.50;1.15;;;;;;;;;;6171924;23;20008;-78
2023/08/08 06:01:26;;;;;;;2.95;1.20;;;;;;;;;;6196884;23;20043;-78
2023/08/08 06:03:52;;;;;;;2.92;1.20;;;;;;;;;;6248625;23;20003;-79
2023/08/08 06:06:18;;;;;;;1.30;1.20;;;;;;;;;;6194433;23;20008;-79
2023/08/08 06:08:43;;;;;;;2.83;1.02;;;;;;;;;;6245444;23;20390;-79
2023/08/08 06:11:09;;;;;;;2.28;1.40;;;;;;;;;;6219228;23;20000;-80
2023/08/08 06:13:35;;;;;;;5.63;1.10;;;;;;;;;;6245177;23;20011;-80
2023/08/08 06:16:01;;;;;;;2.88;1.00;;;;;;;;;;6245142;23;20031;-78
2023/08/08 06:18:26;;;;;;;2.42;1.48;;;;;;;;;;6245483;23;20069;-79
2023/08/08 06:20:52;;;;;;;2.35;1.00;;;;;;;;;;6218181;23;19996;-79
2023/08/08 06:23:17;;;;;;;1.02;0.88;;;;;;;;;;6245070;23;20006;-79
2023/08/08 06:25:43;;;;;;;2.40;2.20;;;;;;;;;;6199137;23;20478;-80
2023/08/08 06:28:08;;;;;;;3.65;1.63;;;;;;;;;;6243782;23;19996;-80
2023/08/08 06:30:34;;;;;;;4.18;1.90;;;;;;;;;;6193337;23;20008;-79
2023/08/08 06:32:59;;;;;;;3.00;1.20;;;;;;;;;;6218010;23;20296;-78
2023/08/08 06:35:24;;;;;;;3.55;1.10;;;;;;;;;;6217886;23;20004;-79
2023/08/08 06:37:50;;;;;;;6.38;2.90;;;;;;;;;;6192913;23;20003;-79
2023/08/08 06:40:15;;;;;;;3.78;1.98;;;;;;;;;;6218481;23;20004;-79
2023/08/08 06:42:41;;;;;;;2.60;1.38;;;;;;;;;;6218374;23;20070;-80
2023/08/08 06:45:07;;;;;;;2.63;1.27;;;;;;;;;;6243440;23;20008;-80
2023/08/08 06:47:32;;;;;;;5.00;1.50;;;;;;;;;;6243591;23;20000;-80
2023/08/08 06:49:58;;;;;;;0.98;0.90;;;;;;;;;;6242917;23;20354;-80
2023/08/08 06:52:23;;;;;;;5.22;1.20;;;;;;;;;;6243663;23;20007;-80
2023/08/08 06:54:49;;;;;;;5.38;1.30;;;;;;;;;;6244881;22;20415;-79
2023/08/08 06:57:14;;;;;;;1.40;1.00;;;;;;;;;;6243220;23;20065;-79
2023/08/08 06:59:39;;;;;;;1.75;1.20;;;;;;;;;;6243630;23;20004;-79
2023/08/08 07:02:05;;;;;;;6.68;1.15;;;;;;;;;;6243926;23;20008;-79
2023/08/08 07:04:31;;;;;;;5.00;1.27;;;;;;;;;;6218429;23;20024;-80
2023/08/08 07:06:56;;;;;;;4.88;1.55;;;;;;;;;;6243379;23;20010;-80
2023/08/08 07:09:21;;;;;;;3.35;1.50;;;;;;;;;;6218065;23;20088;-80
2023/08/08 07:11:47;;;;;;;3.45;1.20;;;;;;;;;;6218218;23;20042;-80
2023/08/08 07:14:13;;;;;;;4.32;1.50;;;;;;;;;;6244840;22;20000;-80
2023/08/08 07:16:38;;;;;;;4.80;1.75;;;;;;;;;;6245059;22;20004;-80
2023/08/08 07:19:04;;;;;;;13.30;4.85;;;;;;;;;;6244748;22;20011;-81
2023/08/08 07:21:31;;;;;;;3.13;1.60;;;;;;;;;;6244092;23;20065;-81
2023/08/08 07:23:57;;;;;;;3.10;1.40;;;;;;;;;;6218145;23;20075;-80
2023/08/08 07:26:23;;;;;;;5.68;3.08;;;;;;;;;;6243516;23;20020;-80
2023/08/08 07:28:48;;;;;;;5.80;2.58;;;;;;;;;;6243231;23;20079;-81
2023/08/08 07:31:14;;;;;;;7.13;3.25;;;;;;;;;;6217982;23;20004;-80
2023/08/08 07:33:40;;;;;;;6.80;2.80;;;;;;;;;;6243107;23;20058;-80
2023/08/08 07:36:06;;;;;;;8.65;3.55;;;;;;;;;;6218024;23;20063;-79
2023/08/08 07:38:33;;;;;;;5.25;1.90;;;;;;;;;;6244761;23;20057;-81
2023/08/08 07:40:58;;;;;;;4.30;1.90;;;;;;;;;;6244627;22;20104;-81
2023/08/08 07:43:23;;;;;;;2.90;1.77;;;;;;;;;;6243123;23;20004;-81
2023/08/08 07:45:49;;;;;;;5.00;2.22;;;;;;;;;;6244185;22;20086;-81
2023/08/08 07:48:14;;;;;;;2.55;1.83;;;;;;;;;;6217074;23;20008;-81
2023/08/08 07:50:40;;;;;;;5.80;1.70;;;;;;;;;;6217570;23;20418;-80
2023/08/08 07:53:05;;;;;;;5.18;1.98;;;;;;;;;;6244226;22;20027;-80
2023/08/08 07:55:31;;;;;;;5.28;2.08;;;;;;;;;;6217693;23;20501;-79
2023/08/08 07:57:56;;;;;;;2.78;1.95;;;;;;;;;;6243300;23;20034;-79
2023/08/08 08:00:21;;;;;;;8.15;2.00;;;;;;;;;;6217682;23;20070;-79
2023/08/08 08:02:47;;;;;;;2.80;2.08;;;;;;;;;;6244116;23;20007;-79
2023/08/08 08:05:13;;;;;;;2.35;1.98;;;;;;;;;;6244501;22;20008;-79
2023/08/08 08:07:39;;;;;;;2.97;2.00;;;;;;;;;;6244500;22;20008;-80
2023/08/08 08:10:06;;;;;;;6.30;2.35;;;;;;;;;;6217576;23;20085;-79
2023/08/08 08:12:31;;;;;;;4.75;2.60;;;;;;;;;;6244540;22;20011;-81
2023/08/08 08:14:56;;;;;;;4.63;2.90;;;;;;;;;;6217589;23;20000;-81
2023/08/08 08:17:22;;;;;;;3.00;2.53;;;;;;;;;;6192092;23;20412;-80
2023/08/08 08:19:47;;;;;;;4.45;1.95;;;;;;;;;;6217758;23;20004;-79
2023/08/08 08:22:13;;;;;;;4.95;2.00;;;;;;;;;;6217484;23;20040;-80
2023/08/08 08:24:38;;;;;;;3.15;1.98;;;;;;;;;;6217399;23;20004;-80
2023/08/08 08:27:04;;;;;;;3.22;2.03;;;;;;;;;;6242320;23;20008;-80
2023/08/08 08:29:30;;;;;;;2.38;1.92;;;;;;;;;;6192432;23;20008;-81
2023/08/08 08:31:56;;;;;;;3.53;1.60;;;;;;;;;;6242220;23;19996;-81
2023/08/08 08:34:21;;;;;;;3.50;1.80;;;;;;;;;;6243765;22;20450;-80
2023/08/08 08:36:47;;;;;;;2.17;1.98;;;;;;;;;;6244117;22;20007;-79
2023/08/08 08:39:13;;;;;;;3.00;2.45;;;;;;;;;;6216975;23;20324;-81
2023/08/08 08:41:39;;;;;;;2.92;2.40;;;;;;;;;;6242623;23;20004;-79
2023/08/08 08:44:05;;;;;;;4.75;2.35;;;;;;;;;;6242529;23;20007;-80
2023/08/08 08:46:31;;;;;;;3.50;2.67;;;;;;;;;;6217208;23;20004;-81
2023/08/08 08:48:56;;;;;;;6.72;2.80;;;;;;;;;;6242668;23;20004;-81
2023/08/08 08:51:22;;;;;;;8.05;2.42;;;;;;;;;;6242860;23;20016;-81
2023/08/08 08:53:48;;;;;;;6.78;2.75;;;;;;;;;;6242346;23;20489;-80
2023/08/08 08:56:14;;;;;;;3.63;2.70;;;;;;;;;;6217587;23;20007;-81
2023/08/08 08:58:40;;;;;;;9.90;2.85;;;;;;;;;;6219342;23;20004;-81
2023/08/08 09:01:06;;;;;;;4.63;2.60;;;;;;;;;;6218874;23;20011;-81
2023/08/08 09:03:32;;;;;;;5.05;3.40;;;;;;;;;;6194501;23;20424;-81
2023/08/08 09:05:57;;;;;;;5.55;3.58;;;;;;;;;;6244452;23;20058;-80
2023/08/08 09:08:23;;;;;;;3.40;3.00;;;;;;;;;;6244471;23;20005;-81
2023/08/08 09:10:50;;;;;;;11.32;7.50;;;;;;;;;;6219203;23;20016;-82
2023/08/08 09:13:16;;;;;;;10.88;6.05;;;;;;;;;;6245698;22;20077;-81
2023/08/08 09:15:41;;;;;;;4.90;3.17;;;;;;;;;;6218912;23;20004;-82
2023/08/08 09:18:07;;;;;;;4.20;3.50;;;;;;;;;;6244419;23;20004;-81
2023/08/08 09:20:32;;;;;;;3.20;2.90;;;;;;;;;;6246138;22;20004;-81
2023/08/08 09:22:58;;;;;;;8.30;3.72;;;;;;;;;;6245536;22;19996;-81
2023/08/08 09:25:24;;;;;;;6.88;3.22;;;;;;;;;;6218434;23;20042;-80
2023/08/08 09:27:52;;;;;;;7.30;2.80;;;;;;;;;;6219317;23;20015;-81
2023/08/08 09:30:17;;;;;;;4.15;3.13;;;;;;;;;;6244303;23;20016;-81
2023/08/08 09:32:45;;;;;;;3.85;3.10;;;;;;;;;;6244072;23;20000;-81
2023/08/08 09:35:10;;;;;;;5.78;2.63;;;;;;;;;;6244118;23;20011;-80
2023/08/08 09:37:36;;;;;;;10.27;3.00;;;;;;;;;;6218983;23;20012;-80
2023/08/08 09:40:07;;;;;;;3.65;2.70;;;;;;;;;;6218810;23;20000;-81
2023/08/08 09:42:33;;;;;;;8.55;3.25;;;;;;;;;;6219615;23;20004;-81
2023/08/08 09:44:58;;;;;;;3.00;2.70;;;;;;;;;;6243361;23;20040;-79
2023/08/08 09:47:24;;;;;;;5.60;2.65;;;;;;;;;;6243899;23;20442;-79
2023/08/08 09:49:50;;;;;;;5.93;2.95;;;;;;;;;;6219103;23;20372;-81
2023/08/08 09:52:15;;;;;;;4.05;2.90;;;;;;;;;;6218598;23;20071;-80
2023/08/08 09:54:41;;;;;;;6.28;3.10;;;;;;;;;;6218717;23;20004;-81
2023/08/08 09:57:07;;;;;;;7.63;3.38;;;;;;;;;;6193656;23;20011;-81
2023/08/08 09:59:32;;;;;;;8.75;3.53;;;;;;;;;;6243835;23;20008;-80
2023/08/08 10:01:58;;;;;;;3.17;2.80;;;;;;;;;;6193765;23;20418;-81
2023/08/08 10:04:23;;;;;;;12.38;3.90;;;;;;;;;;6219128;23;20039;-81
2023/08/08 10:06:48;;;;;;;5.10;3.55;;;;;;;;;;6218208;23;20411;-80
2023/08/08 10:09:14;;;;;;;4.88;3.00;;;;;;;;;;6243661;23;20008;-81
2023/08/08 10:11:41;;;;;;;5.88;2.72;;;;;;;;;;6243626;23;20001;-81
2023/08/08 10:14:07;;;;;;;6.43;3.47;;;;;;;;;;6218683;23;20008;-81
2023/08/08 10:16:33;;;;;;;4.72;2.70;;;;;;;;;;6218359;23;20000;-80
2023/08/08 10:18:59;;;;;;;5.90;2.90;;;;;;;;;;6243496;23;20008;-80
2023/08/08 10:21:25;;;;;;;3.20;2.90;;;;;;;;;;6218594;23;20054;-80
2023/08/08 10:24:04;;;;;;;4.82;3.40;;;;;;;;;;6218255;23;20004;-80
2023/08/08 10:26:30;;;;;;;6.03;3.50;;;;;;;;;;6243316;23;20008;-80
2023/08/08 10:28:56;;;;;;;4.35;3.45;;;;;;;;;;6244649;23;20371;-79
2023/08/08 10:31:21;;;;;;;3.67;2.75;;;;;;;;;;6244859;22;19996;-80
2023/08/08 10:33:47;;;;;;;6.22;2.80;;;;;;;;;;6244874;22;20035;-81
2023/08/08 10:36:13;;;;;;;4.88;3.63;;;;;;;;;;6245069;22;19996;-80
2023/08/08 10:38:42;;;;;;;4.07;3.30;;;;;;;;;;6218140;23;20008;-80
2023/08/08 10:41:14;;;;;;;6.32;3.30;;;;;;;;;;6245010;22;19996;-80
2023/08/08 10:43:50;;;;;;;8.52;3.28;;;;;;;;;;6193331;23;20004;-80
2023/08/08 10:46:25;;;;;;;3.45;2.55;;;;;;;;;;6218995;23;20433;-80
2023/08/08 10:48:51;;;;;;;2.90;2.65;;;;;;;;;;6243169;23;20054;-80
2023/08/08 10:51:17;;;;;;;4.25;3.13;;;;;;;;;;6218549;23;20024;-80
2023/08/08 10:53:43;;;;;;;4.40;3.03;;;;;;;;;;6243344;23;20005;-81
2023/08/08 10:56:12;;;;;;;8.85;2.58;;;;;;;;;;6242993;23;20003;-80
2023/08/08 10:58:39;;;;;;;7.50;3.25;;;;;;;;;;6218213;23;20012;-80
2023/08/08 11:01:07;;;;;;;4.05;2.67;;;;;;;;;;6217950;23;20071;-81
2023/08/08 11:03:34;;;;;;;7.00;3.17;;;;;;;;;;6218691;23;20054;-80
2023/08/08 11:05:59;;;;;;;11.10;2.88;;;;;;;;;;6218187;23;20004;-79
2023/08/08 11:08:25;;;;;;;4.47;3.13;;;;;;;;;;6217815;23;20007;-79
2023/08/08 11:10:52;;;;;;;8.43;3.05;;;;;;;;;;6244358;23;20015;-81
2023/08/08 11:13:17;;;;;;;6.65;3.10;;;;;;;;;;6243290;23;20078;-80
2023/08/08 11:15:42;;;;;;;7.82;2.47;;;;;;;;;;6243614;23;20003;-81
2023/08/08 11:18:09;;;;;;;4.40;2.40;;;;;;;;;;6242965;23;20062;-80
2023/08/08 11:20:35;;;;;;;6.50;2.72;;;;;;;;;;6193192;23;20004;-80
2023/08/08 11:23:01;;;;;;;6.22;2.80;;;;;;;;;;6243041;23;20000;-79
2023/08/08 11:25:28;;;;;;;4.28;2.40;;;;;;;;;;6242855;23;20344;-79
2023/08/08 11:27:53;;;;;;;7.40;2.05;;;;;;;;;;6244285;22;20004;-79
2023/08/08 11:30:19;;;;;;;3.88;2.45;;;;;;;;;;6244212;22;20023;-80
2023/08/08 11:32:46;;;;;;;4.28;1.90;;;;;;;;;;6217806;23;20390;-80
2023/08/08 11:35:11;;;;;;;2.80;2.10;;;;;;;;;;6219196;23;20004;-80
2023/08/08 11:37:36;;;;;;;3.15;1.80;;;;;;;;;;6242896;23;20032;-80
2023/08/08 11:40:05;;;;;;;3.58;2.20;;;;;;;;;;6242533;23;20431;-80
2023/08/08 11:42:31;;;;;;;3.50;1.88;;;;;;;;;;6242731;23;20004;-81
2023/08/08 11:44:56;;;;;;;5.57;1.75;;;;;;;;;;6217727;23;20007;-80
2023/08/08 11:47:25;;;;;;;5.05;1.98;;;;;;;;;;6243508;23;20004;-80
2023/08/08 11:49:52;;;;;;;5.22;2.30;;;;;;;;;;6242886;23;20419;-79
2023/08/08 11:52:18;;;;;;;3.53;1.70;;;;;;;;;;6245288;22;20620;-80
2023/08/08 11:54:43;;;;;;;4.32;2.20;;;;;;;;;;6245651;22;20000;-79
2023/08/08 11:57:09;;;;;;;7.78;2.10;;;;;;;;;;6243814;23;20102;-80
2023/08/08 11:59:35;;;;;;;5.85;2.20;;;;;;;;;;6242761;23;20015;-80
2023/08/08 12:02:01;;;;;;;5.07;2.20;;;;;;;;;;6243435;23;19996;-79
2023/08/08 12:04:26;;;;;;;5.80;2.08;;;;;;;;;;6244816;22;20008;-80
2023/08/08 12:07:00;;;;;;;3.28;2.08;;;;;;;;;;6244208;22;20004;-80
2023/08/08 12:09:29;;;;;;;3.40;1.90;;;;;;;;;;6242755;23;20022;-80
2023/08/08 12:11:55;;;;;;;3.92;2.10;;;;;;;;;;6242755;23;20004;-81
2023/08/08 12:14:20;;;;;;;5.30;2.28;;;;;;;;;;6244279;22;20443;-80
2023/08/08 12:16:47;;;;;;;3.42;2.28;;;;;;;;;;6217370;23;20004;-80
2023/08/08 12:19:14;;;;;;;8.70;2.00;;;;;;;;;;6242884;23;20012;-81
2023/08/08 12:21:39;;;;;;;8.85;1.80;;;;;;;;;;6217225;23;20014;-80
2023/08/08 12:24:05;;;;;;;6.53;2.05;;;;;;;;;;6243689;23;20075;-80
2023/08/08 12:26:31;;;;;;;5.43;2.08;;;;;;;;;;6243880;22;20070;-79
2023/08/08 12:28:57;;;;;;;5.07;1.80;;;;;;;;;;6192028;23;20008;-78
2023/08/08 12:31:22;;;;;;;3.55;1.60;;;;;;;;;;6193352;23;20085;-79
2023/08/08 12:33:48;;;;;;;3.33;1.92;;;;;;;;;;6246573;23;20483;-80
2023/08/08 12:36:14;;;;;;;3.45;1.98;;;;;;;;;;6246091;23;20420;-80
2023/08/08 12:38:40;;;;;;;2.30;1.77;;;;;;;;;;6218752;23;20066;-80
2023/08/08 12:41:06;;;;;;;3.55;1.92;;;;;;;;;;6246042;23;20006;-80
2023/08/08 12:43:34;;;;;;;3.30;1.60;;;;;;;;;;6246424;23;20380;-79
2023/08/08 12:45:59;;;;;;;1.83;1.58;;;;;;;;;;6220008;23;20023;-80
2023/08/08 12:48:25;;;;;;;2.92;1.98;;;;;;;;;;6219254;23;20428;-80
2023/08/08 12:50:50;;;;;;;2.28;1.67;;;;;;;;;;6245908;23;20007;-80
2023/08/08 12:53:15;;;;;;;2.97;1.73;;;;;;;;;;6193128;23;20008;-80
2023/08/08 12:55:41;;;;;;;2.38;1.67;;;;;;;;;;6246514;23;20083;-80
2023/08/08 12:58:06;;;;;;;4.13;1.75;;;;;;;;;;6219396;23;20491;-79
2023/08/08 13:00:32;;;;;;;2.95;1.70;;;;;;;;;;6245818;23;20424;-79
2023/08/08 13:02:57;;;;;;;2.35;1.67;;;;;;;;;;6219217;23;20031;-80
2023/08/08 13:05:23;;;;;;;1.63;1.40;;;;;;;;;;6194014;23;20010;-79
2023/08/08 13:07:48;;;;;;;2.95;1.80;;;;;;;;;;6245769;23;20071;-80
2023/08/08 13:10:14;;;;;;;3.42;1.50;;;;;;;;;;6194191;23;20004;-79
2023/08/08 13:12:40;;;;;;;2.90;1.65;;;;;;;;;;6219402;23;20416;-78
2023/08/08 13:15:07;;;;;;;2.35;1.73;;;;;;;;;;6219066;23;20063;-80
2023/08/08 13:17:32;;;;;;;9.75;2.20;;;;;;;;;;6219095;23;20058;-80
2023/08/08 13:19:57;;;;;;;3.78;1.90;;;;;;;;;;6218772;23;20004;-80
2023/08/08 13:22:23;;;;;;;3.97;2.10;;;;;;;;;;6218634;23;20075;-80
2023/08/08 13:24:48;;;;;;;4.97;1.80;;;;;;;;;;6245622;23;20082;-80
2023/08/08 13:27:14;;;;;;;8.32;1.67;;;;;;;;;;6218382;23;20058;-79
2023/08/08 13:29:39;;;;;;;1.85;1.63;;;;;;;;;;6244165;23;20004;-80
2023/08/08 13:32:05;;;;;;;2.95;2.17;;;;;;;;;;6244138;23;20000;-80
2023/08/08 13:34:30;;;;;;;2.15;1.50;;;;;;;;;;6245868;22;20146;-80
2023/08/08 13:36:55;;;;;;;2.38;1.58;;;;;;;;;;6243674;23;20004;-79
2023/08/08 13:39:21;;;;;;;3.47;1.67;;;;;;;;;;6245709;23;20446;-80
2023/08/08 13:41:46;;;;;;;2.22;1.40;;;;;;;;;;6193750;23;20004;-79
2023/08/08 13:44:12;;;;;;;2.40;1.45;;;;;;;;;;6193880;23;20011;-80
2023/08/08 13:46:37;;;;;;;2.25;1.50;;;;;;;;;;6245337;23;20076;-79
2023/08/08 13:49:03;;;;;;;4.43;1.67;;;;;;;;;;6244119;23;20058;-80
2023/08/08 13:51:28;;;;;;;4.70;1.80;;;;;;;;;;6244844;22;20419;-78
2023/08/08 13:53:54;;;;;;;7.95;2.00;;;;;;;;;;6244106;23;20035;-78
2023/08/08 13:56:20;;;;;;;5.05;1.63;;;;;;;;;;6244317;23;19996;-79
2023/08/08 13:58:46;;;;;;;4.03;1.48;;;;;;;;;;6218736;23;20023;-79
2023/08/08 14:01:11;;;;;;;3.20;1.77;;;;;;;;;;6243756;23;20004;-79
2023/08/08 14:03:36;;;;;;;6.20;1.83;;;;;;;;;;6244023;23;20004;-79
2023/08/08 14:06:02;;;;;;;2.58;1.67;;;;;;;;;;6243340;23;20034;-79
2023/08/08 14:08:27;;;;;;;5.78;1.90;;;;;;;;;;6245122;22;20113;-79
2023/08/08 14:10:53;;;;;;;2.53;1.50;;;;;;;;;;6193159;23;20011;-79
2023/08/08 14:13:19;;;;;;;5.53;1.58;;;;;;;;;;6245117;22;20004;-78
2023/08/08 14:15:45;;;;;;;1.30;1.20;;;;;;;;;;6244249;23;20087;-80
2023/08/08 14:18:10;;;;;;;1.83;1.52;;;;;;;;;;6244698;22;20004;-79
2023/08/08 14:20:36;;;;;;;1.70;1.60;;;;;;;;;;6218564;23;20000;-79
2023/08/08 14:23:01;;;;;;;2.92;1.50;;;;;;;;;;6244889;23;20000;-78
2023/08/08 14:25:26;;;;;;;4.32;1.60;;;;;;;;;;6245279;22;20015;-79
2023/08/08 14:27:52;;;;;;;2.00;1.60;;;;;;;;;;6218836;23;20012;-78
2023/08/08 14:30:17;;;;;;;1.70;1.58;;;;;;;;;;6193257;23;20004;-79
2023/08/08 14:32:43;;;;;;;2.08;1.55;;;;;;;;;;6193162;23;20000;-78
2023/08/08 14:35:10;;;;;;;4.38;1.30;;;;;;;;;;6217735;23;20004;-79